sensor_id;sensor_type;location;lat;lon;timestamp;temperature;humidity
23073;DHT22;67971;51.046;3.732;2023-03-01T00:02:20;5.00;97.50
23073;DHT22;67971;51.046;3.732;2023-03-01T00:04:46;5.00;97.90
23073;DHT22;67971;51.046;3.732;2023-03-01T00:07:12;4.90;98.20
23073;DHT22;67971;51.046;3.732;2023-03-01T00:09:37;4.90;98.60
23073;DHT22;67971;51.046;3.732;2023-03-01T00:12:04;4.90;98.70
23073;DHT22;67971;51.046;3.732;2023-03-01T00:14:30;4.90;98.70
23073;DHT22;67971;51.046;3.732;2023-03-01T00:16:56;4.90;99.00
23073;DHT22;67971;51.046;3.732;2023-03-01T00:19:21;5.00;99.10
23073;DHT22;67971;51.046;3.732;2023-03-01T00:21:47;4.90;99.60
23073;DHT22;67971;51.046;3.732;2023-03-01T00:24:13;4.80;99.90
23073;DHT22;67971;51.046;3.732;2023-03-01T00:26:39;4.80;99.90
23073;DHT22;67971;51.046;3.732;2023-03-01T00:29:05;4.80;99.90
23073;DHT22;67971;51.046;3.732;2023-03-01T00:31:32;4.60;99.90
23073;DHT22;67971;51.046;3.732;2023-03-01T00:33:59;4.60;99.90
23073;DHT22;67971;51.046;3.732;2023-03-01T00:36:29;4.50;99.90
23073;DHT22;67971;51.046;3.732;2023-03-01T00:38:55;4.50;99.90
23073;DHT22;67971;51.046;3.732;2023-03-01T00:41:22;4.50;99.90
23073;DHT22;67971;51.046;3.732;2023-03-01T00:43:49;4.50;99.90
23073;DHT22;67971;51.046;3.732;2023-03-01T00:46:18;4.50;99.90
23073;DHT22;67971;51.046;3.732;2023-03-01T00:48:44;4.50;99.90
23073;DHT22;67971;51.046;3.732;2023-03-01T00:51:11;4.60;99.90
23073;DHT22;67971;51.046;3.732;2023-03-01T00:53:37;4.70;99.90
23073;DHT22;67971;51.046;3.732;2023-03-01T00:56:05;4.80;99.90
23073;DHT22;67971;51.046;3.732;2023-03-01T00:58:31;4.80;99.90
23073;DHT22;67971;51.046;3.732;2023-03-01T01:00:57;4.90;99.90
23073;DHT22;67971;51.046;3.732;2023-03-01T01:03:23;4.80;99.90
23073;DHT22;67971;51.046;3.732;2023-03-01T01:05:51;4.80;99.90
23073;DHT22;67971;51.046;3.732;2023-03-01T01:08:17;4.80;99.90
23073;DHT22;67971;51.046;3.732;2023-03-01T01:10:44;4.70;99.90
23073;DHT22;67971;51.046;3.732;2023-03-01T01:13:10;4.70;99.90
23073;DHT22;67971;51.046;3.732;2023-03-01T01:15:36;4.70;99.90
23073;DHT22;67971;51.046;3.732;2023-03-01T01:18:02;4.60;99.90
23073;DHT22;67971;51.046;3.732;2023-03-01T01:20:27;4.50;99.90
23073;DHT22;67971;51.046;3.732;2023-03-01T01:22:53;4.50;99.90
23073;DHT22;67971;51.046;3.732;2023-03-01T01:25:19;4.50;99.90
23073;DHT22;67971;51.046;3.732;2023-03-01T01:27:45;4.40;99.90
23073;DHT22;67971;51.046;3.732;2023-03-01T01:30:11;4.40;99.90
23073;DHT22;67971;51.046;3.732;2023-03-01T01:32:37;4.30;99.90
23073;DHT22;67971;51.046;3.732;2023-03-01T01:35:03;4.30;99.90
23073;DHT22;67971;51.046;3.732;2023-03-01T01:37:29;4.30;99.90
23073;DHT22;67971;51.046;3.732;2023-03-01T01:39:59;4.30;99.90
23073;DHT22;67971;51.046;3.732;2023-03-01T01:42:25;4.30;99.90
23073;DHT22;67971;51.046;3.732;2023-03-01T01:47:57;4.20;99.90
23073;DHT22;67971;51.046;3.732;2023-03-01T01:50:24;4.10;99.90
23073;DHT22;67971;51.046;3.732;2023-03-01T01:52:50;4.10;99.90
23073;DHT22;67971;51.046;3.732;2023-03-01T01:55:20;4.00;99.90
23073;DHT22;67971;51.046;3.732;2023-03-01T01:57:49;4.00;99.90
23073;DHT22;67971;51.046;3.732;2023-03-01T02:00:22;4.00;99.90
23073;DHT22;67971;51.046;3.732;2023-03-01T02:02:51;4.10;99.90
23073;DHT22;67971;51.046;3.732;2023-03-01T02:05:38;4.00;99.90
23073;DHT22;67971;51.046;3.732;2023-03-01T02:08:05;4.00;99.90
23073;DHT22;67971;51.046;3.732;2023-03-01T02:10:33;3.90;99.90
23073;DHT22;67971;51.046;3.732;2023-03-01T02:13:00;3.90;99.90
23073;DHT22;67971;51.046;3.732;2023-03-01T02:15:26;4.00;99.90
23073;DHT22;67971;51.046;3.732;2023-03-01T02:17:56;4.10;99.90
23073;DHT22;67971;51.046;3.732;2023-03-01T02:22:58;4.10;99.90
23073;DHT22;67971;51.046;3.732;2023-03-01T02:25:39;3.90;99.90
23073;DHT22;67971;51.046;3.732;2023-03-01T02:30:43;3.70;99.90
23073;DHT22;67971;51.046;3.732;2023-03-01T02:33:30;3.80;99.90
23073;DHT22;67971;51.046;3.732;2023-03-01T02:36:00;3.90;99.90
23073;DHT22;67971;51.046;3.732;2023-03-01T02:38:26;3.90;99.90
23073;DHT22;67971;51.046;3.732;2023-03-01T02:40:54;3.90;99.90
23073;DHT22;67971;51.046;3.732;2023-03-01T02:43:26;3.90;99.90
23073;DHT22;67971;51.046;3.732;2023-03-01T02:45:56;3.90;99.90
23073;DHT22;67971;51.046;3.732;2023-03-01T02:48:22;3.90;99.90
23073;DHT22;67971;51.046;3.732;2023-03-01T02:52:17;3.90;99.90
23073;DHT22;67971;51.046;3.732;2023-03-01T02:56:55;3.90;99.90
23073;DHT22;67971;51.046;3.732;2023-03-01T02:59:24;4.00;99.90
23073;DHT22;67971;51.046;3.732;2023-03-01T03:01:52;4.00;99.90
23073;DHT22;67971;51.046;3.732;2023-03-01T03:04:18;3.90;99.90
23073;DHT22;67971;51.046;3.732;2023-03-01T03:06:47;3.90;99.90
23073;DHT22;67971;51.046;3.732;2023-03-01T03:09:14;3.80;99.90
23073;DHT22;67971;51.046;3.732;2023-03-01T03:11:40;3.80;99.90
23073;DHT22;67971;51.046;3.732;2023-03-01T03:14:11;3.70;99.90
23073;DHT22;67971;51.046;3.732;2023-03-01T03:16:43;3.70;99.90
23073;DHT22;67971;51.046;3.732;2023-03-01T03:19:09;3.60;99.90
23073;DHT22;67971;51.046;3.732;2023-03-01T03:21:35;3.70;99.90
23073;DHT22;67971;51.046;3.732;2023-03-01T03:24:01;3.70;99.90
23073;DHT22;67971;51.046;3.732;2023-03-01T03:26:27;3.70;99.90
23073;DHT22;67971;51.046;3.732;2023-03-01T03:28:53;3.70;99.90
23073;DHT22;67971;51.046;3.732;2023-03-01T03:31:19;3.60;99.90
23073;DHT22;67971;51.046;3.732;2023-03-01T03:33:45;3.70;99.90
23073;DHT22;67971;51.046;3.732;2023-03-01T03:36:15;3.70;99.90
23073;DHT22;67971;51.046;3.732;2023-03-01T03:38:44;3.70;99.90
23073;DHT22;67971;51.046;3.732;2023-03-01T03:41:11;3.60;99.90
23073;DHT22;67971;51.046;3.732;2023-03-01T03:43:39;3.60;99.90
23073;DHT22;67971;51.046;3.732;2023-03-01T03:46:06;3.50;99.90
23073;DHT22;67971;51.046;3.732;2023-03-01T03:48:37;3.60;99.90
23073;DHT22;67971;51.046;3.732;2023-03-01T03:51:03;3.60;99.90
23073;DHT22;67971;51.046;3.732;2023-03-01T03:53:33;3.60;99.90
23073;DHT22;67971;51.046;3.732;2023-03-01T03:55:58;3.60;99.90
23073;DHT22;67971;51.046;3.732;2023-03-01T03:58:25;3.50;99.90
23073;DHT22;67971;51.046;3.732;2023-03-01T04:00:54;3.50;99.90
23073;DHT22;67971;51.046;3.732;2023-03-01T04:03:22;3.40;99.90
23073;DHT22;67971;51.046;3.732;2023-03-01T04:05:48;3.20;99.90
23073;DHT22;67971;51.046;3.732;2023-03-01T04:08:16;3.30;99.90
23073;DHT22;67971;51.046;3.732;2023-03-01T04:10:44;3.30;99.90
23073;DHT22;67971;51.046;3.732;2023-03-01T04:13:12;3.30;99.90
23073;DHT22;67971;51.046;3.732;2023-03-01T04:15:39;3.30;99.90
23073;DHT22;67971;51.046;3.732;2023-03-01T04:18:05;3.30;99.90
23073;DHT22;67971;51.046;3.732;2023-03-01T04:20:34;3.20;99.90
23073;DHT22;67971;51.046;3.732;2023-03-01T04:23:17;3.20;99.90
23073;DHT22;67971;51.046;3.732;2023-03-01T04:25:53;3.20;99.90
23073;DHT22;67971;51.046;3.732;2023-03-01T04:28:27;3.20;99.90
23073;DHT22;67971;51.046;3.732;2023-03-01T04:30:54;3.20;99.90
23073;DHT22;67971;51.046;3.732;2023-03-01T04:33:20;3.20;99.90
23073;DHT22;67971;51.046;3.732;2023-03-01T04:35:45;3.20;99.90
23073;DHT22;67971;51.046;3.732;2023-03-01T04:38:15;3.10;99.90
23073;DHT22;67971;51.046;3.732;2023-03-01T04:40:40;3.10;99.90
23073;DHT22;67971;51.046;3.732;2023-03-01T04:43:09;3.00;99.90
23073;DHT22;67971;51.046;3.732;2023-03-01T04:45:35;3.00;99.90
23073;DHT22;67971;51.046;3.732;2023-03-01T04:48:02;3.00;99.90
23073;DHT22;67971;51.046;3.732;2023-03-01T04:50:28;3.00;99.90
23073;DHT22;67971;51.046;3.732;2023-03-01T04:52:55;3.00;99.90
23073;DHT22;67971;51.046;3.732;2023-03-01T04:55:27;3.00;99.90
23073;DHT22;67971;51.046;3.732;2023-03-01T04:57:54;3.00;99.90
23073;DHT22;67971;51.046;3.732;2023-03-01T05:00:20;2.90;99.90
23073;DHT22;67971;51.046;3.732;2023-03-01T05:02:58;2.80;99.90
23073;DHT22;67971;51.046;3.732;2023-03-01T05:07:52;2.90;99.90
23073;DHT22;67971;51.046;3.732;2023-03-01T05:10:18;2.80;99.90
23073;DHT22;67971;51.046;3.732;2023-03-01T05:12:44;2.80;99.90
23073;DHT22;67971;51.046;3.732;2023-03-01T05:15:10;2.80;99.90
23073;DHT22;67971;51.046;3.732;2023-03-01T05:17:35;2.70;99.90
23073;DHT22;67971;51.046;3.732;2023-03-01T05:20:01;2.70;99.90
23073;DHT22;67971;51.046;3.732;2023-03-01T05:22:32;2.70;99.90
23073;DHT22;67971;51.046;3.732;2023-03-01T05:24:58;2.70;99.90
23073;DHT22;67971;51.046;3.732;2023-03-01T05:27:23;2.70;99.90
23073;DHT22;67971;51.046;3.732;2023-03-01T05:29:49;2.60;99.90
23073;DHT22;67971;51.046;3.732;2023-03-01T05:32:14;2.60;99.90
23073;DHT22;67971;51.046;3.732;2023-03-01T05:34:41;2.70;99.90
23073;DHT22;67971;51.046;3.732;2023-03-01T05:37:07;2.60;99.90
23073;DHT22;67971;51.046;3.732;2023-03-01T05:39:34;2.70;99.90
23073;DHT22;67971;51.046;3.732;2023-03-01T05:42:01;2.50;99.90
23073;DHT22;67971;51.046;3.732;2023-03-01T05:44:28;2.40;99.90
23073;DHT22;67971;51.046;3.732;2023-03-01T05:46:54;2.50;99.90
23073;DHT22;67971;51.046;3.732;2023-03-01T05:49:21;2.50;99.90
23073;DHT22;67971;51.046;3.732;2023-03-01T05:51:50;2.50;99.90
23073;DHT22;67971;51.046;3.732;2023-03-01T05:54:17;2.40;99.90
23073;DHT22;67971;51.046;3.732;2023-03-01T05:56:44;2.50;99.90
23073;DHT22;67971;51.046;3.732;2023-03-01T05:59:10;2.50;99.90
23073;DHT22;67971;51.046;3.732;2023-03-01T06:01:37;2.40;99.90
23073;DHT22;67971;51.046;3.732;2023-03-01T06:04:03;2.40;99.90
23073;DHT22;67971;51.046;3.732;2023-03-01T06:06:30;2.40;99.90
23073;DHT22;67971;51.046;3.732;2023-03-01T06:08:58;2.40;99.90
23073;DHT22;67971;51.046;3.732;2023-03-01T06:11:24;2.40;99.90
23073;DHT22;67971;51.046;3.732;2023-03-01T06:13:50;2.40;99.90
23073;DHT22;67971;51.046;3.732;2023-03-01T06:16:15;2.40;99.90
23073;DHT22;67971;51.046;3.732;2023-03-01T06:18:41;2.30;99.90
23073;DHT22;67971;51.046;3.732;2023-03-01T06:21:08;2.20;99.90
23073;DHT22;67971;51.046;3.732;2023-03-01T06:23:34;2.10;99.90
23073;DHT22;67971;51.046;3.732;2023-03-01T06:26:00;2.20;99.90
23073;DHT22;67971;51.046;3.732;2023-03-01T06:28:26;2.20;99.90
23073;DHT22;67971;51.046;3.732;2023-03-01T06:30:52;2.20;99.90
23073;DHT22;67971;51.046;3.732;2023-03-01T06:33:18;2.20;99.90
23073;DHT22;67971;51.046;3.732;2023-03-01T06:35:46;2.30;99.90
23073;DHT22;67971;51.046;3.732;2023-03-01T06:38:12;2.40;99.90
23073;DHT22;67971;51.046;3.732;2023-03-01T06:40:40;2.40;99.90
23073;DHT22;67971;51.046;3.732;2023-03-01T06:43:06;2.50;99.90
23073;DHT22;67971;51.046;3.732;2023-03-01T06:45:33;2.30;99.90
23073;DHT22;67971;51.046;3.732;2023-03-01T06:48:06;2.20;99.90
23073;DHT22;67971;51.046;3.732;2023-03-01T06:50:33;2.20;99.90
23073;DHT22;67971;51.046;3.732;2023-03-01T06:53:00;2.30;99.90
23073;DHT22;67971;51.046;3.732;2023-03-01T06:55:26;2.40;99.90
23073;DHT22;67971;51.046;3.732;2023-03-01T06:57:56;2.50;99.90
23073;DHT22;67971;51.046;3.732;2023-03-01T07:00:23;2.20;99.90
23073;DHT22;67971;51.046;3.732;2023-03-01T07:02:48;2.10;99.90
23073;DHT22;67971;51.046;3.732;2023-03-01T07:05:14;2.20;99.90
23073;DHT22;67971;51.046;3.732;2023-03-01T07:07:40;2.20;99.90
23073;DHT22;67971;51.046;3.732;2023-03-01T07:10:06;2.40;99.90
23073;DHT22;67971;51.046;3.732;2023-03-01T07:12:32;2.50;99.90
23073;DHT22;67971;51.046;3.732;2023-03-01T07:14:58;2.70;99.90
23073;DHT22;67971;51.046;3.732;2023-03-01T07:17:24;2.80;99.90
23073;DHT22;67971;51.046;3.732;2023-03-01T07:19:49;2.80;99.90
23073;DHT22;67971;51.046;3.732;2023-03-01T07:22:15;2.90;99.90
23073;DHT22;67971;51.046;3.732;2023-03-01T07:24:41;2.90;99.90
23073;DHT22;67971;51.046;3.732;2023-03-01T07:27:07;3.00;99.90
23073;DHT22;67971;51.046;3.732;2023-03-01T07:29:33;3.10;99.90
23073;DHT22;67971;51.046;3.732;2023-03-01T07:31:58;3.10;99.90
23073;DHT22;67971;51.046;3.732;2023-03-01T07:34:24;3.20;99.90
23073;DHT22;67971;51.046;3.732;2023-03-01T07:36:50;3.20;99.90
23073;DHT22;67971;51.046;3.732;2023-03-01T07:39:16;3.30;99.90
23073;DHT22;67971;51.046;3.732;2023-03-01T07:41:41;3.40;99.90
23073;DHT22;67971;51.046;3.732;2023-03-01T07:44:07;3.30;99.90
23073;DHT22;67971;51.046;3.732;2023-03-01T07:46:33;3.30;99.90
23073;DHT22;67971;51.046;3.732;2023-03-01T07:48:58;3.40;99.90
23073;DHT22;67971;51.046;3.732;2023-03-01T07:51:24;4.00;99.90
23073;DHT22;67971;51.046;3.732;2023-03-01T07:53:50;5.70;99.90
23073;DHT22;67971;51.046;3.732;2023-03-01T07:56:16;7.80;99.90
23073;DHT22;67971;51.046;3.732;2023-03-01T07:58:44;9.70;99.90
23073;DHT22;67971;51.046;3.732;2023-03-01T08:01:13;11.20;99.90
23073;DHT22;67971;51.046;3.732;2023-03-01T08:03:39;12.40;99.90
23073;DHT22;67971;51.046;3.732;2023-03-01T08:06:07;13.40;99.90
23073;DHT22;67971;51.046;3.732;2023-03-01T08:08:34;14.70;99.90
23073;DHT22;67971;51.046;3.732;2023-03-01T08:11:02;15.70;99.90
23073;DHT22;67971;51.046;3.732;2023-03-01T08:13:29;16.50;99.10
23073;DHT22;67971;51.046;3.732;2023-03-01T08:16:00;17.10;97.00
23073;DHT22;67971;51.046;3.732;2023-03-01T08:18:25;17.40;95.70
23073;DHT22;67971;51.046;3.732;2023-03-01T08:20:51;18.10;94.00
23073;DHT22;67971;51.046;3.732;2023-03-01T08:23:17;18.20;92.40
23073;DHT22;67971;51.046;3.732;2023-03-01T08:25:42;18.60;91.40
23073;DHT22;67971;51.046;3.732;2023-03-01T08:28:08;19.20;90.70
23073;DHT22;67971;51.046;3.732;2023-03-01T08:30:34;19.40;89.80
23073;DHT22;67971;51.046;3.732;2023-03-01T08:32:59;19.50;88.30
23073;DHT22;67971;51.046;3.732;2023-03-01T08:35:25;19.80;86.60
23073;DHT22;67971;51.046;3.732;2023-03-01T08:37:51;20.40;85.00
23073;DHT22;67971;51.046;3.732;2023-03-01T08:40:16;20.80;83.30
23073;DHT22;67971;51.046;3.732;2023-03-01T08:42:42;21.20;82.00
23073;DHT22;67971;51.046;3.732;2023-03-01T08:45:10;22.00;78.50
23073;DHT22;67971;51.046;3.732;2023-03-01T08:47:36;21.50;76.70
23073;DHT22;67971;51.046;3.732;2023-03-01T08:50:02;21.40;77.10
23073;DHT22;67971;51.046;3.732;2023-03-01T08:52:28;20.70;76.90
23073;DHT22;67971;51.046;3.732;2023-03-01T08:54:55;20.30;77.30
23073;DHT22;67971;51.046;3.732;2023-03-01T08:57:21;20.40;76.10
23073;DHT22;67971;51.046;3.732;2023-03-01T08:59:47;20.40;76.10
23073;DHT22;67971;51.046;3.732;2023-03-01T09:02:16;20.30;77.00
23073;DHT22;67971;51.046;3.732;2023-03-01T09:04:42;20.60;76.30
23073;DHT22;67971;51.046;3.732;2023-03-01T09:07:08;21.70;75.00
23073;DHT22;67971;51.046;3.732;2023-03-01T09:09:34;22.20;72.70
23073;DHT22;67971;51.046;3.732;2023-03-01T09:12:00;22.00;72.00
23073;DHT22;67971;51.046;3.732;2023-03-01T09:14:26;22.30;71.80
23073;DHT22;67971;51.046;3.732;2023-03-01T09:16:52;22.70;71.00
23073;DHT22;67971;51.046;3.732;2023-03-01T09:19:17;23.60;69.20
23073;DHT22;67971;51.046;3.732;2023-03-01T09:21:43;23.60;68.40
23073;DHT22;67971;51.046;3.732;2023-03-01T09:24:22;24.20;67.00
23073;DHT22;67971;51.046;3.732;2023-03-01T09:26:48;23.70;66.30
23073;DHT22;67971;51.046;3.732;2023-03-01T09:29:15;22.40;67.40
23073;DHT22;67971;51.046;3.732;2023-03-01T09:31:41;22.90;67.70
23073;DHT22;67971;51.046;3.732;2023-03-01T09:34:08;23.80;67.00
23073;DHT22;67971;51.046;3.732;2023-03-01T09:36:34;24.20;66.00
23073;DHT22;67971;51.046;3.732;2023-03-01T09:39:00;24.90;63.80
23073;DHT22;67971;51.046;3.732;2023-03-01T09:46:43;24.00;63.00
23073;DHT22;67971;51.046;3.732;2023-03-01T09:49:23;23.60;63.60
23073;DHT22;67971;51.046;3.732;2023-03-01T09:52:23;24.50;62.60
23073;DHT22;67971;51.046;3.732;2023-03-01T09:54:54;25.20;61.90
23073;DHT22;67971;51.046;3.732;2023-03-01T09:57:46;25.50;61.30
23073;DHT22;67971;51.046;3.732;2023-03-01T10:00:34;25.90;60.10
23073;DHT22;67971;51.046;3.732;2023-03-01T10:03:43;25.70;59.50
23073;DHT22;67971;51.046;3.732;2023-03-01T10:06:15;26.50;59.30
23073;DHT22;67971;51.046;3.732;2023-03-01T10:08:50;26.40;58.50
23073;DHT22;67971;51.046;3.732;2023-03-01T10:11:22;25.80;58.50
23073;DHT22;67971;51.046;3.732;2023-03-01T10:16:48;25.50;58.10
23073;DHT22;67971;51.046;3.732;2023-03-01T10:19:30;26.00;57.70
23073;DHT22;67971;51.046;3.732;2023-03-01T10:22:03;25.00;57.10
23073;DHT22;67971;51.046;3.732;2023-03-01T10:24:32;24.50;57.50
23073;DHT22;67971;51.046;3.732;2023-03-01T10:27:26;24.80;57.30
23073;DHT22;67971;51.046;3.732;2023-03-01T10:32:53;25.70;56.30
23073;DHT22;67971;51.046;3.732;2023-03-01T10:35:25;26.00;56.60
23073;DHT22;67971;51.046;3.732;2023-03-01T10:40:30;24.50;56.30
23073;DHT22;67971;51.046;3.732;2023-03-01T10:42:58;25.50;55.80
23073;DHT22;67971;51.046;3.732;2023-03-01T10:50:33;26.10;54.00
23073;DHT22;67971;51.046;3.732;2023-03-01T10:53:03;25.50;54.90
23073;DHT22;67971;51.046;3.732;2023-03-01T10:55:37;25.70;54.80
23073;DHT22;67971;51.046;3.732;2023-03-01T10:58:16;26.50;54.20
23073;DHT22;67971;51.046;3.732;2023-03-01T11:01:06;25.80;54.10
23073;DHT22;67971;51.046;3.732;2023-03-01T11:06:33;26.00;53.30
23073;DHT22;67971;51.046;3.732;2023-03-01T11:11:44;26.90;54.00
23073;DHT22;67971;51.046;3.732;2023-03-01T11:14:20;27.10;52.90
23073;DHT22;67971;51.046;3.732;2023-03-01T11:16:49;26.40;53.10
23073;DHT22;67971;51.046;3.732;2023-03-01T11:19:23;27.40;53.40
23073;DHT22;67971;51.046;3.732;2023-03-01T11:22:12;27.80;52.20
23073;DHT22;67971;51.046;3.732;2023-03-01T11:24:47;27.70;53.10
23073;DHT22;67971;51.046;3.732;2023-03-01T11:27:23;28.20;51.50
23073;DHT22;67971;51.046;3.732;2023-03-01T11:35:36;27.80;51.80
23073;DHT22;67971;51.046;3.732;2023-03-01T11:38:23;28.10;51.40
23073;DHT22;67971;51.046;3.732;2023-03-01T11:52:08;29.70;50.90
23073;DHT22;67971;51.046;3.732;2023-03-01T12:06:18;28.40;49.60
23073;DHT22;67971;51.046;3.732;2023-03-01T12:25:25;31.50;49.60
23073;DHT22;67971;51.046;3.732;2023-03-01T12:38:50;30.00;48.10
23073;DHT22;67971;51.046;3.732;2023-03-01T12:44:27;30.70;46.90
23073;DHT22;67971;51.046;3.732;2023-03-01T12:49:49;29.80;47.80
23073;DHT22;67971;51.046;3.732;2023-03-01T12:52:45;30.00;47.40
23073;DHT22;67971;51.046;3.732;2023-03-01T12:55:40;29.70;48.20
23073;DHT22;67971;51.046;3.732;2023-03-01T12:58:49;28.80;47.40
23073;DHT22;67971;51.046;3.732;2023-03-01T13:04:04;29.90;47.80
23073;DHT22;67971;51.046;3.732;2023-03-01T13:09:48;30.00;47.80
23073;DHT22;67971;51.046;3.732;2023-03-01T13:15:35;31.00;47.40
23073;DHT22;67971;51.046;3.732;2023-03-01T13:21:01;30.10;47.00
23073;DHT22;67971;51.046;3.732;2023-03-01T13:23:33;30.40;46.90
23073;DHT22;67971;51.046;3.732;2023-03-01T13:26:10;30.80;47.20
23073;DHT22;67971;51.046;3.732;2023-03-01T13:28:52;31.10;46.60
23073;DHT22;67971;51.046;3.732;2023-03-01T13:33:50;30.30;47.60
23073;DHT22;67971;51.046;3.732;2023-03-01T13:39:04;30.30;46.40
23073;DHT22;67971;51.046;3.732;2023-03-01T13:49:48;29.90;47.00
23073;DHT22;67971;51.046;3.732;2023-03-01T13:54:47;30.40;47.50
23073;DHT22;67971;51.046;3.732;2023-03-01T13:57:20;30.10;46.90
23073;DHT22;67971;51.046;3.732;2023-03-01T13:59:48;29.80;47.10
23073;DHT22;67971;51.046;3.732;2023-03-01T14:02:14;29.50;47.30
23073;DHT22;67971;51.046;3.732;2023-03-01T14:04:40;29.90;47.40
23073;DHT22;67971;51.046;3.732;2023-03-01T14:07:19;30.50;47.50
23073;DHT22;67971;51.046;3.732;2023-03-01T14:09:52;30.10;46.80
23073;DHT22;67971;51.046;3.732;2023-03-01T14:20:41;29.50;47.80
23073;DHT22;67971;51.046;3.732;2023-03-01T14:23:28;28.90;47.50
23073;DHT22;67971;51.046;3.732;2023-03-01T14:25:56;28.20;48.00
23073;DHT22;67971;51.046;3.732;2023-03-01T14:28:32;28.30;48.10
23073;DHT22;67971;51.046;3.732;2023-03-01T14:31:03;28.40;48.20
23073;DHT22;67971;51.046;3.732;2023-03-01T14:33:31;28.00;48.40
23073;DHT22;67971;51.046;3.732;2023-03-01T14:36:10;27.30;49.60
23073;DHT22;67971;51.046;3.732;2023-03-01T14:38:37;27.40;49.60
23073;DHT22;67971;51.046;3.732;2023-03-01T14:41:16;27.40;49.50
23073;DHT22;67971;51.046;3.732;2023-03-01T14:44:34;27.40;49.20
23073;DHT22;67971;51.046;3.732;2023-03-01T14:46:40;27.30;49.20
23073;DHT22;67971;51.046;3.732;2023-03-01T14:49:15;27.30;49.70
23073;DHT22;67971;51.046;3.732;2023-03-01T14:51:46;26.90;49.00
23073;DHT22;67971;51.046;3.732;2023-03-01T14:54:29;26.80;48.90
23073;DHT22;67971;51.046;3.732;2023-03-01T14:57:01;26.20;49.80
23073;DHT22;67971;51.046;3.732;2023-03-01T14:59:27;25.60;50.30
23073;DHT22;67971;51.046;3.732;2023-03-01T15:01:55;26.20;50.30
23073;DHT22;67971;51.046;3.732;2023-03-01T15:04:22;26.70;49.80
23073;DHT22;67971;51.046;3.732;2023-03-01T15:06:53;26.60;50.10
23073;DHT22;67971;51.046;3.732;2023-03-01T15:09:21;26.40;49.50
23073;DHT22;67971;51.046;3.732;2023-03-01T15:11:47;25.90;50.30
23073;DHT22;67971;51.046;3.732;2023-03-01T15:17:33;25.50;50.10
23073;DHT22;67971;51.046;3.732;2023-03-01T15:20:05;24.50;50.90
23073;DHT22;67971;51.046;3.732;2023-03-01T15:22:32;24.80;51.20
23073;DHT22;67971;51.046;3.732;2023-03-01T15:24:58;25.00;51.40
23073;DHT22;67971;51.046;3.732;2023-03-01T15:27:25;25.10;50.70
23073;DHT22;67971;51.046;3.732;2023-03-01T15:29:59;25.20;50.70
23073;DHT22;67971;51.046;3.732;2023-03-01T15:32:35;25.10;50.40
23073;DHT22;67971;51.046;3.732;2023-03-01T15:35:38;25.00;51.10
23073;DHT22;67971;51.046;3.732;2023-03-01T15:38:22;24.80;51.10
23073;DHT22;67971;51.046;3.732;2023-03-01T15:40:49;24.90;51.00
23073;DHT22;67971;51.046;3.732;2023-03-01T15:46:03;24.00;51.70
23073;DHT22;67971;51.046;3.732;2023-03-01T15:48:29;23.70;52.30
23073;DHT22;67971;51.046;3.732;2023-03-01T15:50:57;23.40;52.20
23073;DHT22;67971;51.046;3.732;2023-03-01T15:53:23;23.00;52.70
23073;DHT22;67971;51.046;3.732;2023-03-01T15:55:49;22.40;53.60
23073;DHT22;67971;51.046;3.732;2023-03-01T15:58:21;22.30;54.10
23073;DHT22;67971;51.046;3.732;2023-03-01T16:00:48;22.10;53.80
23073;DHT22;67971;51.046;3.732;2023-03-01T16:03:17;21.40;54.50
23073;DHT22;67971;51.046;3.732;2023-03-01T16:05:47;21.10;55.00
23073;DHT22;67971;51.046;3.732;2023-03-01T16:08:13;20.00;56.20
23073;DHT22;67971;51.046;3.732;2023-03-01T16:10:40;18.90;58.00
23073;DHT22;67971;51.046;3.732;2023-03-01T16:13:07;18.10;58.50
23073;DHT22;67971;51.046;3.732;2023-03-01T16:15:33;17.90;59.40
23073;DHT22;67971;51.046;3.732;2023-03-01T16:18:00;17.30;60.00
23073;DHT22;67971;51.046;3.732;2023-03-01T16:20:26;16.70;61.80
23073;DHT22;67971;51.046;3.732;2023-03-01T16:22:53;15.80;63.00
23073;DHT22;67971;51.046;3.732;2023-03-01T16:25:20;15.20;64.50
23073;DHT22;67971;51.046;3.732;2023-03-01T16:27:48;14.90;65.90
23073;DHT22;67971;51.046;3.732;2023-03-01T16:30:16;14.60;66.30
23073;DHT22;67971;51.046;3.732;2023-03-01T16:32:44;14.40;67.20
23073;DHT22;67971;51.046;3.732;2023-03-01T16:35:12;14.20;68.30
23073;DHT22;67971;51.046;3.732;2023-03-01T16:37:38;14.10;68.60
23073;DHT22;67971;51.046;3.732;2023-03-01T16:40:07;14.40;68.30
23073;DHT22;67971;51.046;3.732;2023-03-01T16:42:41;14.80;67.10
23073;DHT22;67971;51.046;3.732;2023-03-01T16:45:08;14.60;66.90
23073;DHT22;67971;51.046;3.732;2023-03-01T16:47:34;14.20;67.90
23073;DHT22;67971;51.046;3.732;2023-03-01T16:50:00;13.90;67.80
23073;DHT22;67971;51.046;3.732;2023-03-01T16:52:26;14.00;68.10
23073;DHT22;67971;51.046;3.732;2023-03-01T16:54:51;14.30;67.80
23073;DHT22;67971;51.046;3.732;2023-03-01T16:57:18;14.40;67.70
23073;DHT22;67971;51.046;3.732;2023-03-01T16:59:44;14.40;67.80
23073;DHT22;67971;51.046;3.732;2023-03-01T17:02:11;14.20;67.40
23073;DHT22;67971;51.046;3.732;2023-03-01T17:04:38;13.90;68.10
23073;DHT22;67971;51.046;3.732;2023-03-01T17:07:04;13.80;68.80
23073;DHT22;67971;51.046;3.732;2023-03-01T17:09:33;13.60;68.50
23073;DHT22;67971;51.046;3.732;2023-03-01T17:11:59;13.30;69.60
23073;DHT22;67971;51.046;3.732;2023-03-01T17:14:25;13.00;70.30
23073;DHT22;67971;51.046;3.732;2023-03-01T17:16:50;12.80;70.80
23073;DHT22;67971;51.046;3.732;2023-03-01T17:19:18;12.40;71.40
23073;DHT22;67971;51.046;3.732;2023-03-01T17:21:45;12.20;71.80
23073;DHT22;67971;51.046;3.732;2023-03-01T17:24:11;12.10;72.10
23073;DHT22;67971;51.046;3.732;2023-03-01T17:26:38;11.90;73.00
23073;DHT22;67971;51.046;3.732;2023-03-01T17:29:04;11.60;75.40
23073;DHT22;67971;51.046;3.732;2023-03-01T17:31:34;11.50;74.60
23073;DHT22;67971;51.046;3.732;2023-03-01T17:33:59;11.40;75.40
23073;DHT22;67971;51.046;3.732;2023-03-01T17:36:25;11.40;75.00
23073;DHT22;67971;51.046;3.732;2023-03-01T17:38:51;11.30;76.20
23073;DHT22;67971;51.046;3.732;2023-03-01T17:41:17;11.10;76.80
23073;DHT22;67971;51.046;3.732;2023-03-01T17:43:46;11.10;76.90
23073;DHT22;67971;51.046;3.732;2023-03-01T17:46:12;10.90;76.30
23073;DHT22;67971;51.046;3.732;2023-03-01T17:48:38;10.70;76.70
23073;DHT22;67971;51.046;3.732;2023-03-01T17:51:08;10.70;76.60
23073;DHT22;67971;51.046;3.732;2023-03-01T17:53:34;10.50;76.60
23073;DHT22;67971;51.046;3.732;2023-03-01T17:56:02;10.40;76.90
23073;DHT22;67971;51.046;3.732;2023-03-01T17:58:29;10.30;77.00
23073;DHT22;67971;51.046;3.732;2023-03-01T18:00:55;10.20;77.60
23073;DHT22;67971;51.046;3.732;2023-03-01T18:03:20;10.10;78.10
23073;DHT22;67971;51.046;3.732;2023-03-01T18:05:46;10.10;78.40
23073;DHT22;67971;51.046;3.732;2023-03-01T18:08:13;10.10;78.10
23073;DHT22;67971;51.046;3.732;2023-03-01T18:10:39;10.00;78.20
23073;DHT22;67971;51.046;3.732;2023-03-01T18:13:05;10.00;78.30